ELY192 UACC-LLBG
Flight info
| Callsign | ELY192 |
|---|---|
| Flight time | N/A |
| Altitude | 40000 |
| Route | DIDAL1A DIDAL L994 TITUR N985 ORTIM L158 IRGOS T613 DOGOB M864 ELMOD L4 TOKNU T288 STAPA M869 OPOKA/N0488F400 DCT IRBEX DCT BOKSU M985 SUWGI M857 GERVI Z179 KEFIR/N0492F410 DCT BADOR DCT EMPOS DCT APROB DCT ADORU UG80 EKI UW81 YAYLA UL854 KULAR UT39 TOMBI DCT IDAKU L35 PIKOG L609 ZUKKO |
| Aircraft | B772/H-SDE2E3FGHIJ5LORVWXY/LB1D1 |
Departure
| Time | 2026-04-29 16:15 |
|---|---|
| Airport | Nursultan Nazarbayev International Airport (UACC) |
Arrival
| Time | N/A |
|---|---|
| Airport | Ben Gurion International Airport (LLBG) |
| Time | Latitude | Longitude | Altitude | Speed | Heading |
|---|---|---|---|---|---|
| 2026-04-29 16:03 | 51.02478 | 71.45885 | 1163 ft | 0 kts | 44° |
| 2026-04-29 16:11 | 51.02479 | 71.45885 | 1168 ft | 2 kts | 45° |
| 2026-04-29 16:11 | 51.02487 | 71.45978 | 1163 ft | 16 kts | 116° |
| 2026-04-29 16:11 | 51.02405 | 71.46145 | 1164 ft | 20 kts | 128° |
| 2026-04-29 16:11 | 51.02306 | 71.46226 | 1165 ft | 15 kts | 205° |
| 2026-04-29 16:12 | 51.02197 | 71.46065 | 1164 ft | 25 kts | 225° |
| 2026-04-29 16:12 | 51.02075 | 71.45871 | 1167 ft | 25 kts | 225° |
| 2026-04-29 16:12 | 51.01948 | 71.45670 | 1165 ft | 28 kts | 224° |
| 2026-04-29 16:12 | 51.01810 | 71.45460 | 1164 ft | 28 kts | 224° |
| 2026-04-29 16:13 | 51.01672 | 71.45247 | 1166 ft | 28 kts | 224° |
| 2026-04-29 16:13 | 51.01535 | 71.45035 | 1165 ft | 28 kts | 224° |
| 2026-04-29 16:13 | 51.01399 | 71.44821 | 1165 ft | 28 kts | 225° |
| 2026-04-29 16:13 | 51.01265 | 71.44712 | 1166 ft | 19 kts | 163° |
| 2026-04-29 16:14 | 51.01173 | 71.44855 | 1166 ft | 15 kts | 110° |
| 2026-04-29 16:14 | 51.01227 | 71.45011 | 1168 ft | 28 kts | 45° |
| 2026-04-29 16:14 | 51.01542 | 71.45511 | 1166 ft | 100 kts | 44° |
| 2026-04-29 16:14 | 51.02194 | 71.46513 | 1167 ft | 160 kts | 44° |
| 2026-04-29 16:15 | 51.03061 | 71.47841 | 1620 ft | 178 kts | 43° |
| 2026-04-29 16:15 | 51.03945 | 71.49187 | 2542 ft | 172 kts | 44° |
| 2026-04-29 16:15 | 51.04803 | 71.50521 | 3246 ft | 174 kts | 46° |
| 2026-04-29 16:15 | 51.05728 | 71.51986 | 3667 ft | 204 kts | 46° |
| 2026-04-29 16:16 | 51.06820 | 71.53698 | 3916 ft | 238 kts | 46° |
| 2026-04-29 16:16 | 51.08093 | 71.55603 | 4337 ft | 259 kts | 38° |
| 2026-04-29 16:16 | 51.09781 | 71.56738 | 5176 ft | 272 kts | 9° |
| 2026-04-29 16:16 | 51.11690 | 71.56513 | 6135 ft | 282 kts | 341° |
| 2026-04-29 16:17 | 51.13321 | 71.54818 | 7124 ft | 284 kts | 307° |
| 2026-04-29 16:17 | 51.14236 | 71.52093 | 8527 ft | 281 kts | 291° |
| 2026-04-29 16:17 | 51.15015 | 71.49202 | 10026 ft | 287 kts | 290° |
| 2026-04-29 16:17 | 51.15800 | 71.46256 | 11473 ft | 290 kts | 290° |
| 2026-04-29 16:18 | 51.16591 | 71.43272 | 12921 ft | 295 kts | 289° |
| 2026-04-29 16:18 | 51.17395 | 71.40232 | 14037 ft | 303 kts | 290° |
| 2026-04-29 16:18 | 51.18240 | 71.37029 | 14325 ft | 326 kts | 290° |
| 2026-04-29 16:18 | 51.19158 | 71.33560 | 14519 ft | 352 kts | 290° |
| 2026-04-29 16:19 | 51.20144 | 71.29847 | 14685 ft | 374 kts | 290° |
| 2026-04-29 16:19 | 51.21184 | 71.25946 | 15075 ft | 389 kts | 290° |
| 2026-04-29 16:19 | 51.22240 | 71.21994 | 15710 ft | 397 kts | 291° |
| 2026-04-29 16:19 | 51.23330 | 71.17919 | 16526 ft | 400 kts | 291° |
| 2026-04-29 16:20 | 51.24423 | 71.13822 | 17494 ft | 403 kts | 291° |
| 2026-04-29 16:20 | 51.25525 | 71.09685 | 18453 ft | 406 kts | 291° |
| 2026-04-29 16:20 | 51.26633 | 71.05512 | 19248 ft | 411 kts | 291° |
| 2026-04-29 16:20 | 51.27752 | 71.01289 | 20023 ft | 415 kts | 290° |
| 2026-04-29 16:21 | 51.28881 | 70.97020 | 20826 ft | 419 kts | 290° |
| 2026-04-29 16:21 | 51.30018 | 70.92710 | 21617 ft | 423 kts | 290° |
| 2026-04-29 16:21 | 51.31164 | 70.88357 | 22399 ft | 427 kts | 290° |
| 2026-04-29 16:21 | 51.32321 | 70.83957 | 23133 ft | 431 kts | 290° |
| 2026-04-29 16:22 | 51.33485 | 70.79522 | 23812 ft | 435 kts | 290° |
| 2026-04-29 16:22 | 51.34660 | 70.75039 | 24374 ft | 439 kts | 290° |
| 2026-04-29 16:22 | 51.35836 | 70.70517 | 24940 ft | 442 kts | 289° |
| 2026-04-29 16:22 | 51.36851 | 70.65878 | 25477 ft | 443 kts | 283° |
| 2026-04-29 16:23 | 51.37618 | 70.61099 | 25983 ft | 445 kts | 282° |
| 2026-04-29 16:23 | 51.38373 | 70.56262 | 26493 ft | 449 kts | 282° |
| 2026-04-29 16:23 | 51.39131 | 70.51428 | 26963 ft | 452 kts | 282° |
| 2026-04-29 16:23 | 51.39835 | 70.46979 | 27404 ft | 455 kts | 282° |
| 2026-04-29 16:24 | 51.40296 | 70.44083 | 27674 ft | 456 kts | 282° |
| 2026-04-29 16:24 | 51.41084 | 70.39144 | 28102 ft | 459 kts | 282° |
| 2026-04-29 16:24 | 51.41875 | 70.34197 | 28515 ft | 462 kts | 282° |
| 2026-04-29 16:24 | 51.42670 | 70.29198 | 28905 ft | 465 kts | 282° |
| 2026-04-29 16:25 | 51.43466 | 70.24166 | 29301 ft | 467 kts | 282° |
| 2026-04-29 16:25 | 51.44267 | 70.19123 | 29617 ft | 468 kts | 282° |
| 2026-04-29 16:25 | 51.45072 | 70.14040 | 29892 ft | 472 kts | 282° |
| 2026-04-29 16:25 | 51.45878 | 70.08932 | 30175 ft | 474 kts | 282° |
| 2026-04-29 16:26 | 51.46683 | 70.03808 | 30506 ft | 473 kts | 282° |
| 2026-04-29 16:26 | 51.47481 | 69.98705 | 30932 ft | 471 kts | 282° |
| 2026-04-29 16:26 | 51.48351 | 69.93658 | 31385 ft | 469 kts | 286° |
| 2026-04-29 16:26 | 51.49482 | 69.88766 | 31776 ft | 468 kts | 291° |
| 2026-04-29 16:27 | 51.50905 | 69.84065 | 32141 ft | 469 kts | 295° |
| 2026-04-29 16:27 | 51.52431 | 69.79436 | 32470 ft | 469 kts | 295° |
| 2026-04-29 16:27 | 51.53950 | 69.74807 | 32810 ft | 468 kts | 295° |
| 2026-04-29 16:27 | 51.55456 | 69.70188 | 33202 ft | 466 kts | 295° |
| 2026-04-29 16:28 | 51.56946 | 69.65583 | 33606 ft | 464 kts | 295° |
| 2026-04-29 16:28 | 51.58426 | 69.60984 | 34005 ft | 462 kts | 295° |
| 2026-04-29 16:28 | 51.59895 | 69.56396 | 34344 ft | 461 kts | 294° |
| 2026-04-29 16:28 | 51.61359 | 69.51810 | 34632 ft | 461 kts | 294° |
| 2026-04-29 16:29 | 51.62820 | 69.47220 | 34932 ft | 460 kts | 294° |
| 2026-04-29 16:29 | 51.64274 | 69.42645 | 35241 ft | 459 kts | 294° |
| 2026-04-29 16:29 | 51.65724 | 69.38072 | 35556 ft | 458 kts | 294° |
| 2026-04-29 16:29 | 51.67170 | 69.33508 | 35878 ft | 457 kts | 294° |
| 2026-04-29 16:30 | 51.68616 | 69.28936 | 36150 ft | 458 kts | 294° |
| 2026-04-29 16:30 | 51.70058 | 69.24372 | 36439 ft | 457 kts | 294° |
| 2026-04-29 16:30 | 51.71494 | 69.19813 | 36730 ft | 456 kts | 294° |
| 2026-04-29 16:30 | 51.72926 | 69.15257 | 37027 ft | 455 kts | 293° |
| 2026-04-29 16:31 | 51.74353 | 69.10706 | 37292 ft | 454 kts | 293° |
| 2026-04-29 16:31 | 51.75776 | 69.06160 | 37590 ft | 454 kts | 293° |
| 2026-04-29 16:31 | 51.77197 | 69.01621 | 37878 ft | 453 kts | 293° |
| 2026-04-29 16:31 | 51.78596 | 68.97138 | 38067 ft | 454 kts | 293° |
| 2026-04-29 16:32 | 51.80019 | 68.92570 | 38110 ft | 456 kts | 293° |
| 2026-04-29 16:32 | 51.82879 | 68.83360 | 38166 ft | 461 kts | 293° |
| 2026-04-29 16:33 | 51.87195 | 68.69403 | 38143 ft | 464 kts | 293° |
| 2026-04-29 16:33 | 51.90072 | 68.60053 | 38132 ft | 464 kts | 293° |
| 2026-04-29 16:34 | 51.92937 | 68.50701 | 38372 ft | 462 kts | 293° |
| 2026-04-29 16:34 | 51.94360 | 68.46057 | 38738 ft | 458 kts | 292° |
| 2026-04-29 16:34 | 51.95770 | 68.41440 | 38995 ft | 456 kts | 292° |
| 2026-04-29 16:35 | 51.97171 | 68.36834 | 39158 ft | 456 kts | 292° |
| 2026-04-29 16:35 | 51.98542 | 68.32206 | 39293 ft | 456 kts | 291° |
| 2026-04-29 16:35 | 52.01188 | 68.22850 | 39529 ft | 456 kts | 291° |
| 2026-04-29 16:36 | 52.02498 | 68.18160 | 39683 ft | 457 kts | 291° |
| 2026-04-29 16:36 | 52.03812 | 68.13461 | 39829 ft | 456 kts | 291° |
| 2026-04-29 16:36 | 52.05126 | 68.08772 | 39948 ft | 456 kts | 291° |
| 2026-04-29 16:36 | 52.06437 | 68.04097 | 40025 ft | 456 kts | 291° |
| 2026-04-29 16:37 | 52.09077 | 67.94678 | 40124 ft | 458 kts | 291° |
| 2026-04-29 16:37 | 52.11271 | 67.86827 | 40137 ft | 459 kts | 291° |
| 2026-04-29 16:38 | 52.14345 | 67.75781 | 40148 ft | 457 kts | 290° |
| 2026-04-29 16:38 | 52.16949 | 67.66380 | 40137 ft | 455 kts | 290° |
| 2026-04-29 16:39 | 52.19527 | 67.57039 | 40132 ft | 454 kts | 290° |
| 2026-04-29 16:39 | 52.21912 | 67.48346 | 40132 ft | 453 kts | 290° |
| 2026-04-29 16:40 | 52.24473 | 67.38964 | 40135 ft | 453 kts | 290° |
| 2026-04-29 16:40 | 52.27026 | 67.29564 | 40132 ft | 453 kts | 290° |
| 2026-04-29 16:41 | 52.29577 | 67.20149 | 40147 ft | 454 kts | 290° |
| 2026-04-29 16:41 | 52.31947 | 67.11371 | 40148 ft | 454 kts | 290° |
| 2026-04-29 16:42 | 52.34488 | 67.01915 | 40138 ft | 454 kts | 290° |
| 2026-04-29 16:42 | 52.37021 | 66.92444 | 40139 ft | 454 kts | 290° |
| 2026-04-29 16:43 | 52.39548 | 66.82964 | 40138 ft | 455 kts | 289° |
| 2026-04-29 16:43 | 52.42071 | 66.73462 | 40138 ft | 455 kts | 289° |
| 2026-04-29 16:44 | 52.44545 | 66.63923 | 40138 ft | 455 kts | 289° |
| 2026-04-29 16:44 | 52.46989 | 66.54360 | 40135 ft | 455 kts | 289° |
| 2026-04-29 16:45 | 52.49115 | 66.46016 | 40137 ft | 454 kts | 288° |
| 2026-04-29 16:45 | 52.51538 | 66.36500 | 40143 ft | 454 kts | 288° |
| 2026-04-29 16:46 | 52.53963 | 66.26935 | 40135 ft | 454 kts | 288° |
| 2026-04-29 16:46 | 52.56379 | 66.17365 | 40143 ft | 453 kts | 288° |
| 2026-04-29 16:47 | 52.58786 | 66.07789 | 40153 ft | 453 kts | 288° |
| 2026-04-29 16:47 | 52.61186 | 65.98209 | 40143 ft | 453 kts | 288° |
| 2026-04-29 16:48 | 52.63573 | 65.88633 | 40142 ft | 452 kts | 288° |
| 2026-04-29 16:48 | 52.65951 | 65.79053 | 40141 ft | 452 kts | 288° |
| 2026-04-29 16:49 | 52.68319 | 65.69470 | 40154 ft | 451 kts | 288° |
| 2026-04-29 16:49 | 52.70672 | 65.59904 | 40146 ft | 451 kts | 287° |
| 2026-04-29 16:50 | 52.73021 | 65.50320 | 40151 ft | 451 kts | 287° |
| 2026-04-29 16:50 | 52.75365 | 65.40724 | 40146 ft | 451 kts | 288° |
| 2026-04-29 16:51 | 52.77368 | 65.32789 | 40135 ft | 450 kts | 288° |
| 2026-04-29 16:51 | 52.79789 | 65.23247 | 40149 ft | 450 kts | 288° |
| 2026-04-29 16:52 | 52.82154 | 65.13665 | 40141 ft | 450 kts | 287° |
| 2026-04-29 16:52 | 52.84825 | 65.02491 | 40143 ft | 450 kts | 287° |
| 2026-04-29 16:53 | 52.86746 | 64.94421 | 40155 ft | 450 kts | 287° |
| 2026-04-29 16:53 | 52.89041 | 64.84770 | 40151 ft | 450 kts | 286° |
| 2026-04-29 16:54 | 52.91320 | 64.75172 | 40147 ft | 451 kts | 286° |
| 2026-04-29 16:54 | 52.93608 | 64.65499 | 40152 ft | 451 kts | 286° |
| 2026-04-29 16:55 | 52.95887 | 64.55806 | 40150 ft | 451 kts | 286° |
| 2026-04-29 16:55 | 52.98157 | 64.46107 | 40151 ft | 451 kts | 286° |
| 2026-04-29 16:56 | 53.00420 | 64.36398 | 40159 ft | 451 kts | 286° |
| 2026-04-29 16:56 | 53.02678 | 64.26669 | 40164 ft | 452 kts | 286° |
| 2026-04-29 16:57 | 53.04930 | 64.16921 | 40154 ft | 452 kts | 285° |
| 2026-04-29 16:57 | 53.07167 | 64.07183 | 40161 ft | 452 kts | 285° |
| 2026-04-29 16:58 | 53.09404 | 63.97410 | 40159 ft | 452 kts | 285° |
| 2026-04-29 16:58 | 53.11632 | 63.87641 | 40159 ft | 451 kts | 285° |
| 2026-04-29 16:59 | 53.13849 | 63.77860 | 40158 ft | 452 kts | 285° |
| 2026-04-29 16:59 | 53.16063 | 63.68051 | 40162 ft | 452 kts | 285° |
| 2026-04-29 17:00 | 53.18227 | 63.58215 | 40157 ft | 450 kts | 282° |
| 2026-04-29 17:00 | 53.19573 | 63.48122 | 40161 ft | 444 kts | 274° |
| 2026-04-29 17:01 | 53.20532 | 63.37958 | 40153 ft | 444 kts | 274° |
| 2026-04-29 17:01 | 53.21507 | 63.27788 | 40165 ft | 444 kts | 275° |
| 2026-04-29 17:02 | 53.22490 | 63.17616 | 40160 ft | 444 kts | 275° |
| 2026-04-29 17:02 | 53.23459 | 63.07510 | 40166 ft | 445 kts | 274° |
| 2026-04-29 17:03 | 53.24429 | 62.97314 | 40165 ft | 445 kts | 274° |
| 2026-04-29 17:03 | 53.25391 | 62.87102 | 40163 ft | 445 kts | 274° |
| 2026-04-29 17:04 | 53.26345 | 62.76884 | 40165 ft | 446 kts | 274° |
| 2026-04-29 17:04 | 53.27290 | 62.66651 | 40163 ft | 446 kts | 274° |
| 2026-04-29 17:05 | 53.28229 | 62.56405 | 40162 ft | 446 kts | 274° |
| 2026-04-29 17:05 | 53.29156 | 62.46165 | 40166 ft | 446 kts | 274° |
| 2026-04-29 17:06 | 53.30077 | 62.35912 | 40166 ft | 446 kts | 274° |
| 2026-04-29 17:06 | 53.30989 | 62.25671 | 40176 ft | 445 kts | 274° |
| 2026-04-29 17:07 | 53.31891 | 62.15424 | 40165 ft | 445 kts | 274° |
| 2026-04-29 17:07 | 53.32784 | 62.05177 | 40164 ft | 445 kts | 274° |
| 2026-04-29 17:08 | 53.33669 | 61.94927 | 40164 ft | 445 kts | 274° |
| 2026-04-29 17:08 | 53.34546 | 61.84680 | 40162 ft | 445 kts | 274° |
| 2026-04-29 17:09 | 53.35411 | 61.74430 | 40169 ft | 445 kts | 273° |
| 2026-04-29 17:09 | 53.36268 | 61.64183 | 40166 ft | 445 kts | 273° |
| 2026-04-29 17:10 | 53.37110 | 61.54001 | 40170 ft | 444 kts | 273° |
| 2026-04-29 17:10 | 53.37950 | 61.43749 | 40173 ft | 445 kts | 273° |
| 2026-04-29 17:11 | 53.38782 | 61.33490 | 40169 ft | 444 kts | 273° |
| 2026-04-29 17:11 | 53.39613 | 61.23231 | 40167 ft | 445 kts | 274° |
| 2026-04-29 17:12 | 53.41166 | 61.13124 | 40172 ft | 451 kts | 283° |
| 2026-04-29 17:12 | 53.43186 | 61.04937 | 40173 ft | 456 kts | 289° |
| 2026-04-29 17:13 | 53.46407 | 60.93815 | 40168 ft | 456 kts | 290° |
| 2026-04-29 17:13 | 53.49173 | 60.84223 | 40201 ft | 457 kts | 289° |
| 2026-04-29 17:14 | 53.51914 | 60.74575 | 40176 ft | 458 kts | 289° |
| 2026-04-29 17:14 | 53.54645 | 60.64889 | 40172 ft | 459 kts | 289° |
| 2026-04-29 17:15 | 53.57369 | 60.55178 | 40171 ft | 459 kts | 289° |
| 2026-04-29 17:15 | 53.60091 | 60.45446 | 40170 ft | 460 kts | 289° |
| 2026-04-29 17:16 | 53.62803 | 60.35708 | 40169 ft | 460 kts | 289° |
| 2026-04-29 17:16 | 53.65513 | 60.25934 | 40168 ft | 461 kts | 289° |
| 2026-04-29 17:17 | 53.68221 | 60.16137 | 40165 ft | 461 kts | 289° |
| 2026-04-29 17:17 | 53.70900 | 60.06400 | 40166 ft | 461 kts | 289° |
| 2026-04-29 17:18 | 53.73591 | 59.96586 | 40168 ft | 460 kts | 289° |
| 2026-04-29 17:18 | 53.76272 | 59.86769 | 40158 ft | 460 kts | 289° |
| 2026-04-29 17:19 | 53.78942 | 59.76952 | 40177 ft | 460 kts | 289° |
| 2026-04-29 17:19 | 53.81604 | 59.67116 | 40169 ft | 459 kts | 288° |
| 2026-04-29 17:20 | 53.84252 | 59.57290 | 40163 ft | 459 kts | 288° |
| 2026-04-29 17:20 | 53.86893 | 59.47461 | 40165 ft | 458 kts | 288° |
| 2026-04-29 17:21 | 53.89438 | 59.37587 | 40163 ft | 454 kts | 284° |
| 2026-04-29 17:21 | 53.91149 | 59.27389 | 40209 ft | 448 kts | 279° |
| 2026-04-29 17:22 | 53.92679 | 59.17118 | 40182 ft | 450 kts | 279° |
| 2026-04-29 17:22 | 53.94231 | 59.06820 | 40168 ft | 450 kts | 279° |
| 2026-04-29 17:23 | 53.95790 | 58.96520 | 40181 ft | 450 kts | 279° |
| 2026-04-29 17:23 | 53.97343 | 58.86209 | 40189 ft | 451 kts | 279° |
| 2026-04-29 17:24 | 53.98888 | 58.75885 | 40177 ft | 451 kts | 279° |
| 2026-04-29 17:24 | 54.00423 | 58.65553 | 40180 ft | 451 kts | 278° |
| 2026-04-29 17:25 | 54.01951 | 58.55200 | 40202 ft | 452 kts | 278° |
| 2026-04-29 17:25 | 54.03503 | 58.44841 | 40197 ft | 453 kts | 281° |
| 2026-04-29 17:26 | 54.05580 | 58.34672 | 40197 ft | 456 kts | 284° |
| 2026-04-29 17:26 | 54.07733 | 58.24510 | 40195 ft | 456 kts | 284° |
| 2026-04-29 17:27 | 54.09859 | 58.14335 | 40185 ft | 456 kts | 283° |
| 2026-04-29 17:27 | 54.11968 | 58.04136 | 40193 ft | 456 kts | 283° |
| 2026-04-29 17:28 | 54.14068 | 57.93921 | 40192 ft | 457 kts | 283° |
| 2026-04-29 17:28 | 54.16163 | 57.83675 | 40191 ft | 458 kts | 283° |
| 2026-04-29 17:29 | 54.18251 | 57.73406 | 40182 ft | 458 kts | 283° |
| 2026-04-29 17:29 | 54.19978 | 57.64872 | 40182 ft | 458 kts | 283° |
| 2026-04-29 17:30 | 54.22395 | 57.52876 | 40195 ft | 458 kts | 283° |
| 2026-04-29 17:30 | 54.24447 | 57.42619 | 40187 ft | 459 kts | 283° |
| 2026-04-29 17:31 | 54.26522 | 57.32204 | 40180 ft | 460 kts | 283° |
| 2026-04-29 17:31 | 54.28564 | 57.21905 | 40175 ft | 460 kts | 283° |
| 2026-04-29 17:32 | 54.30601 | 57.11535 | 40169 ft | 459 kts | 283° |
| 2026-04-29 17:32 | 54.32624 | 57.01165 | 40172 ft | 459 kts | 282° |
| 2026-04-29 17:33 | 54.34640 | 56.90779 | 40171 ft | 459 kts | 282° |
| 2026-04-29 17:33 | 54.36648 | 56.80386 | 40195 ft | 459 kts | 282° |
| 2026-04-29 17:34 | 54.38644 | 56.69975 | 40174 ft | 459 kts | 282° |
| 2026-04-29 17:34 | 54.40637 | 56.59556 | 40178 ft | 460 kts | 282° |
| 2026-04-29 17:35 | 54.43610 | 56.43886 | 40174 ft | 461 kts | 282° |
| 2026-04-29 17:36 | 54.45587 | 56.33432 | 40166 ft | 460 kts | 282° |
| 2026-04-29 17:36 | 54.47574 | 56.22977 | 40165 ft | 460 kts | 282° |
| 2026-04-29 17:37 | 54.49549 | 56.12527 | 40161 ft | 459 kts | 282° |
| 2026-04-29 17:37 | 54.51510 | 56.02070 | 40161 ft | 459 kts | 282° |
| 2026-04-29 17:38 | 54.53465 | 55.91592 | 40161 ft | 459 kts | 282° |
| 2026-04-29 17:38 | 54.55366 | 55.81106 | 40160 ft | 458 kts | 281° |
| 2026-04-29 17:39 | 54.57197 | 55.70597 | 40163 ft | 458 kts | 281° |
| 2026-04-29 17:39 | 54.59039 | 55.60073 | 40195 ft | 459 kts | 281° |
| 2026-04-29 17:40 | 54.60897 | 55.49537 | 40169 ft | 459 kts | 281° |
| 2026-04-29 17:40 | 54.62437 | 55.40777 | 40159 ft | 459 kts | 281° |
| 2026-04-29 17:41 | 54.64278 | 55.30227 | 40147 ft | 459 kts | 281° |
| 2026-04-29 17:41 | 54.66103 | 55.19670 | 40151 ft | 459 kts | 281° |
| 2026-04-29 17:42 | 54.67854 | 55.09065 | 40146 ft | 459 kts | 280° |
| 2026-04-29 17:42 | 54.69580 | 54.98462 | 40183 ft | 458 kts | 280° |
| 2026-04-29 17:43 | 54.71314 | 54.87841 | 40157 ft | 459 kts | 280° |
| 2026-04-29 17:43 | 54.73036 | 54.77202 | 40149 ft | 460 kts | 280° |
| 2026-04-29 17:44 | 54.74727 | 54.66553 | 40145 ft | 460 kts | 280° |
| 2026-04-29 17:44 | 54.76400 | 54.55952 | 40140 ft | 460 kts | 280° |
| 2026-04-29 17:45 | 54.78077 | 54.45281 | 40142 ft | 459 kts | 280° |
| 2026-04-29 17:45 | 54.79747 | 54.34595 | 40175 ft | 459 kts | 280° |
| 2026-04-29 17:46 | 54.81408 | 54.23892 | 40148 ft | 461 kts | 280° |
| 2026-04-29 17:46 | 54.83067 | 54.13149 | 40140 ft | 461 kts | 280° |
| 2026-04-29 17:47 | 54.84724 | 54.02392 | 40140 ft | 461 kts | 280° |
| 2026-04-29 17:47 | 54.86382 | 53.91634 | 40139 ft | 462 kts | 279° |
| 2026-04-29 17:48 | 54.88023 | 53.80857 | 40138 ft | 462 kts | 279° |
| 2026-04-29 17:48 | 54.89658 | 53.70063 | 40169 ft | 462 kts | 279° |
| 2026-04-29 17:49 | 54.91283 | 53.59252 | 40139 ft | 462 kts | 279° |
| 2026-04-29 17:49 | 54.92880 | 53.48501 | 40136 ft | 463 kts | 279° |
| 2026-04-29 17:50 | 54.94481 | 53.37656 | 40135 ft | 463 kts | 279° |
| 2026-04-29 17:50 | 54.96075 | 53.26802 | 40134 ft | 463 kts | 279° |
| 2026-04-29 17:51 | 54.97668 | 53.15944 | 40140 ft | 463 kts | 279° |
| 2026-04-29 17:51 | 54.99259 | 53.05075 | 40158 ft | 464 kts | 279° |
| 2026-04-29 17:52 | 55.00840 | 52.94195 | 40142 ft | 464 kts | 279° |
| 2026-04-29 17:52 | 55.02415 | 52.83279 | 40131 ft | 464 kts | 279° |
| 2026-04-29 17:53 | 55.03979 | 52.72368 | 40133 ft | 464 kts | 279° |
| 2026-04-29 17:53 | 55.05523 | 52.61441 | 40126 ft | 464 kts | 279° |
| 2026-04-29 17:54 | 55.07056 | 52.50514 | 40123 ft | 464 kts | 279° |
| 2026-04-29 17:54 | 55.08580 | 52.39577 | 40140 ft | 464 kts | 279° |
| 2026-04-29 17:55 | 55.10095 | 52.28624 | 40120 ft | 464 kts | 279° |
| 2026-04-29 17:55 | 55.11604 | 52.17656 | 40117 ft | 465 kts | 279° |
| 2026-04-29 17:56 | 55.13103 | 52.06675 | 40123 ft | 465 kts | 279° |
| 2026-04-29 17:56 | 55.14581 | 51.95759 | 40116 ft | 465 kts | 279° |
| 2026-04-29 17:57 | 55.16061 | 51.84751 | 40115 ft | 465 kts | 279° |
| 2026-04-29 17:57 | 55.17529 | 51.73747 | 40126 ft | 465 kts | 279° |
| 2026-04-29 17:58 | 55.18992 | 51.62707 | 40119 ft | 466 kts | 279° |
| 2026-04-29 17:58 | 55.20447 | 51.51641 | 40105 ft | 467 kts | 278° |
| 2026-04-29 17:59 | 55.21893 | 51.40554 | 40107 ft | 467 kts | 278° |
| 2026-04-29 17:59 | 55.23332 | 51.29447 | 40105 ft | 468 kts | 278° |
| 2026-04-29 18:00 | 55.24758 | 51.18342 | 40102 ft | 467 kts | 278° |
| 2026-04-29 18:00 | 55.26176 | 51.07220 | 40112 ft | 468 kts | 278° |
| 2026-04-29 18:01 | 55.27569 | 50.96054 | 40108 ft | 469 kts | 278° |
| 2026-04-29 18:01 | 55.28880 | 50.84841 | 40102 ft | 470 kts | 278° |
| 2026-04-29 18:02 | 55.30176 | 50.73603 | 40105 ft | 470 kts | 278° |
| 2026-04-29 18:02 | 55.31469 | 50.62352 | 40099 ft | 470 kts | 278° |
| 2026-04-29 18:03 | 55.32760 | 50.51086 | 40099 ft | 471 kts | 277° |
| 2026-04-29 18:03 | 55.34041 | 50.39805 | 40091 ft | 472 kts | 278° |
| 2026-04-29 18:04 | 55.35316 | 50.28482 | 40100 ft | 473 kts | 278° |
| 2026-04-29 18:04 | 55.36580 | 50.17144 | 40093 ft | 473 kts | 277° |
| 2026-04-29 18:05 | 55.37836 | 50.05805 | 40091 ft | 473 kts | 277° |
| 2026-04-29 18:05 | 55.38979 | 49.94434 | 40106 ft | 470 kts | 273° |
| 2026-04-29 18:06 | 55.39537 | 49.83066 | 40088 ft | 470 kts | 271° |
| 2026-04-29 18:06 | 55.40057 | 49.71603 | 40087 ft | 470 kts | 271° |
| 2026-04-29 18:07 | 55.40599 | 49.60144 | 40089 ft | 470 kts | 272° |
| 2026-04-29 18:07 | 55.41139 | 49.48684 | 40084 ft | 470 kts | 271° |
| 2026-04-29 18:08 | 55.41668 | 49.37235 | 40092 ft | 470 kts | 271° |
| 2026-04-29 18:08 | 55.42185 | 49.25758 | 40079 ft | 470 kts | 271° |
| 2026-04-29 18:09 | 55.42693 | 49.14278 | 40084 ft | 470 kts | 271° |
| 2026-04-29 18:09 | 55.43192 | 49.02790 | 40094 ft | 470 kts | 271° |
| 2026-04-29 18:10 | 55.43679 | 48.91299 | 40098 ft | 471 kts | 271° |
| 2026-04-29 18:10 | 55.44157 | 48.79793 | 40098 ft | 472 kts | 271° |
| 2026-04-29 18:11 | 55.44626 | 48.68260 | 40088 ft | 472 kts | 271° |
| 2026-04-29 18:11 | 55.45150 | 48.56721 | 40086 ft | 474 kts | 275° |
| 2026-04-29 18:12 | 55.46561 | 48.45346 | 40091 ft | 478 kts | 284° |
| 2026-04-29 18:12 | 55.48544 | 48.34162 | 40085 ft | 478 kts | 284° |
| 2026-04-29 18:13 | 55.50522 | 48.22957 | 40098 ft | 479 kts | 284° |
| 2026-04-29 18:13 | 55.52453 | 48.11778 | 40086 ft | 480 kts | 284° |
| 2026-04-29 18:14 | 55.54378 | 48.00500 | 40090 ft | 480 kts | 283° |
| 2026-04-29 18:14 | 55.56291 | 47.89200 | 40085 ft | 480 kts | 283° |
| 2026-04-29 18:15 | 55.58196 | 47.77884 | 40080 ft | 480 kts | 283° |
| 2026-04-29 18:15 | 55.60090 | 47.66558 | 40090 ft | 480 kts | 283° |
| 2026-04-29 18:16 | 55.61978 | 47.55216 | 40085 ft | 481 kts | 283° |
| 2026-04-29 18:16 | 55.63856 | 47.43847 | 40077 ft | 482 kts | 283° |
| 2026-04-29 18:17 | 55.65725 | 47.32454 | 40078 ft | 482 kts | 283° |
| 2026-04-29 18:17 | 55.67585 | 47.21043 | 40070 ft | 482 kts | 283° |
| 2026-04-29 18:18 | 55.69436 | 47.09623 | 40096 ft | 482 kts | 283° |
| 2026-04-29 18:18 | 55.71281 | 46.98178 | 40072 ft | 483 kts | 283° |
| 2026-04-29 18:19 | 55.73116 | 46.86723 | 40068 ft | 483 kts | 283° |
| 2026-04-29 18:19 | 55.74945 | 46.75241 | 40065 ft | 483 kts | 283° |
| 2026-04-29 18:20 | 55.76758 | 46.63765 | 40064 ft | 483 kts | 283° |
| 2026-04-29 18:20 | 55.78562 | 46.52280 | 40073 ft | 483 kts | 283° |
| 2026-04-29 18:21 | 55.80031 | 46.40664 | 40076 ft | 481 kts | 277° |
| 2026-04-29 18:21 | 55.81027 | 46.28903 | 40075 ft | 481 kts | 276° |
| 2026-04-29 18:22 | 55.81993 | 46.17207 | 40065 ft | 482 kts | 276° |
| 2026-04-29 18:22 | 55.82983 | 46.05420 | 40066 ft | 482 kts | 276° |
| 2026-04-29 18:23 | 55.83977 | 45.93629 | 40064 ft | 482 kts | 276° |
| 2026-04-29 18:23 | 55.84960 | 45.81821 | 40079 ft | 482 kts | 276° |
| 2026-04-29 18:24 | 55.85932 | 45.70012 | 40066 ft | 482 kts | 276° |
| 2026-04-29 18:24 | 55.86892 | 45.58183 | 40066 ft | 483 kts | 276° |
| 2026-04-29 18:25 | 55.87842 | 45.46348 | 40065 ft | 483 kts | 276° |
| 2026-04-29 18:25 | 55.88780 | 45.34522 | 40062 ft | 482 kts | 276° |
| 2026-04-29 18:26 | 55.89706 | 45.22691 | 40065 ft | 482 kts | 276° |
| 2026-04-29 18:26 | 55.90620 | 45.10860 | 40077 ft | 482 kts | 276° |
| 2026-04-29 18:27 | 55.91514 | 44.99104 | 40066 ft | 482 kts | 276° |
| 2026-04-29 18:27 | 55.92407 | 44.87257 | 40072 ft | 482 kts | 276° |
| 2026-04-29 18:28 | 55.93287 | 44.75418 | 40068 ft | 482 kts | 276° |
| 2026-04-29 18:28 | 55.94156 | 44.63556 | 40070 ft | 482 kts | 276° |
| 2026-04-29 18:29 | 55.95015 | 44.51697 | 40073 ft | 482 kts | 276° |
| 2026-04-29 18:29 | 55.95861 | 44.39830 | 40081 ft | 482 kts | 276° |
| 2026-04-29 18:30 | 55.96696 | 44.27943 | 40081 ft | 483 kts | 276° |
| 2026-04-29 18:30 | 55.97520 | 44.16048 | 40066 ft | 483 kts | 276° |
| 2026-04-29 18:31 | 55.98333 | 44.04137 | 40082 ft | 483 kts | 276° |
| 2026-04-29 18:31 | 55.99134 | 43.92242 | 40075 ft | 484 kts | 275° |
| 2026-04-29 18:32 | 55.99921 | 43.80391 | 40071 ft | 484 kts | 275° |
| 2026-04-29 18:32 | 56.00962 | 43.64428 | 40077 ft | 483 kts | 275° |
| 2026-04-29 18:33 | 56.01850 | 43.50546 | 40089 ft | 484 kts | 275° |
| 2026-04-29 18:33 | 56.02604 | 43.38589 | 40088 ft | 484 kts | 275° |
| 2026-04-29 18:34 | 56.03004 | 43.30601 | 40084 ft | 484 kts | 271° |
| 2026-04-29 18:34 | 56.03220 | 43.16547 | 40096 ft | 484 kts | 270° |
| 2026-04-29 18:35 | 56.03363 | 43.04598 | 40092 ft | 484 kts | 270° |
| 2026-04-29 18:35 | 56.03524 | 42.92501 | 40095 ft | 484 kts | 270° |
| 2026-04-29 18:36 | 56.03684 | 42.80557 | 40109 ft | 484 kts | 270° |
| 2026-04-29 18:36 | 56.03832 | 42.68530 | 40098 ft | 483 kts | 270° |
| 2026-04-29 18:37 | 56.03968 | 42.56511 | 40102 ft | 483 kts | 270° |
| 2026-04-29 18:37 | 56.04073 | 42.44495 | 40109 ft | 483 kts | 270° |
| 2026-04-29 18:38 | 56.04139 | 42.32476 | 40106 ft | 483 kts | 270° |
| 2026-04-29 18:38 | 56.04192 | 42.20447 | 40114 ft | 484 kts | 270° |
| 2026-04-29 18:39 | 56.04239 | 42.08396 | 40113 ft | 485 kts | 270° |
| 2026-04-29 18:39 | 56.04277 | 41.96342 | 40120 ft | 485 kts | 270° |
| 2026-04-29 18:40 | 56.04304 | 41.84286 | 40127 ft | 485 kts | 269° |
| 2026-04-29 18:40 | 56.04317 | 41.72219 | 40124 ft | 485 kts | 269° |
| 2026-04-29 18:41 | 56.04308 | 41.48057 | 40135 ft | 486 kts | 269° |
| 2026-04-29 18:42 | 56.04287 | 41.35954 | 40134 ft | 486 kts | 269° |
| 2026-04-29 18:42 | 56.04255 | 41.23939 | 40136 ft | 487 kts | 269° |
| 2026-04-29 18:43 | 56.04210 | 41.12173 | 40136 ft | 487 kts | 269° |
| 2026-04-29 18:43 | 56.04154 | 41.00057 | 40146 ft | 488 kts | 269° |
| 2026-04-29 18:44 | 56.04086 | 40.87921 | 40140 ft | 488 kts | 269° |
| 2026-04-29 18:44 | 56.04006 | 40.75788 | 40153 ft | 488 kts | 269° |
| 2026-04-29 18:45 | 56.03909 | 40.63639 | 40144 ft | 489 kts | 269° |
| 2026-04-29 18:45 | 56.03798 | 40.51505 | 40147 ft | 489 kts | 269° |
| 2026-04-29 18:46 | 56.03676 | 40.39357 | 40153 ft | 489 kts | 269° |
| 2026-04-29 18:46 | 56.03544 | 40.27192 | 40145 ft | 489 kts | 269° |
| 2026-04-29 18:47 | 56.03398 | 40.15035 | 40158 ft | 489 kts | 269° |
| 2026-04-29 18:47 | 56.03241 | 40.02884 | 40160 ft | 489 kts | 269° |
| 2026-04-29 18:48 | 56.03074 | 39.90725 | 40157 ft | 489 kts | 269° |
| 2026-04-29 18:48 | 56.02894 | 39.78561 | 40157 ft | 490 kts | 268° |
| 2026-04-29 18:49 | 56.02666 | 39.66475 | 40155 ft | 490 kts | 268° |
| 2026-04-29 18:49 | 56.02443 | 39.54311 | 40150 ft | 490 kts | 269° |
| 2026-04-29 18:50 | 56.02261 | 39.42139 | 40159 ft | 490 kts | 268° |
| 2026-04-29 18:50 | 56.02073 | 39.29970 | 40158 ft | 490 kts | 268° |
| 2026-04-29 18:51 | 56.01863 | 39.17802 | 40156 ft | 490 kts | 268° |
| 2026-04-29 18:51 | 56.01638 | 39.05638 | 40159 ft | 490 kts | 268° |
| 2026-04-29 18:52 | 56.01400 | 38.93458 | 40157 ft | 490 kts | 268° |
| 2026-04-29 18:52 | 56.01150 | 38.81296 | 40159 ft | 490 kts | 268° |
| 2026-04-29 18:53 | 56.00890 | 38.69131 | 40156 ft | 490 kts | 268° |
| 2026-04-29 18:53 | 56.00616 | 38.56959 | 40155 ft | 490 kts | 268° |
| 2026-04-29 18:54 | 56.00333 | 38.44789 | 40164 ft | 490 kts | 268° |
| 2026-04-29 18:54 | 56.00037 | 38.32618 | 40161 ft | 490 kts | 268° |
| 2026-04-29 18:55 | 55.99728 | 38.20444 | 40167 ft | 491 kts | 268° |
| 2026-04-29 18:55 | 55.99407 | 38.08275 | 40168 ft | 491 kts | 268° |
| 2026-04-29 18:56 | 55.99075 | 37.96105 | 40164 ft | 490 kts | 268° |
| 2026-04-29 18:56 | 55.98732 | 37.83940 | 40169 ft | 491 kts | 268° |
| 2026-04-29 18:57 | 55.98379 | 37.71773 | 40162 ft | 490 kts | 268° |
| 2026-04-29 18:57 | 55.98044 | 37.59607 | 40175 ft | 490 kts | 268° |
| 2026-04-29 18:58 | 55.97701 | 37.47443 | 40159 ft | 491 kts | 268° |
| 2026-04-29 18:58 | 55.97639 | 37.35420 | 40147 ft | 487 kts | 280° |
| 2026-04-29 18:59 | 55.99877 | 37.24088 | 40154 ft | 486 kts | 301° |
| 2026-04-29 18:59 | 56.03946 | 37.14446 | 40157 ft | 487 kts | 308° |
| 2026-04-29 19:00 | 56.08081 | 37.04831 | 40166 ft | 488 kts | 307° |
| 2026-04-29 19:00 | 56.12183 | 36.95125 | 40172 ft | 489 kts | 308° |
| 2026-04-29 19:01 | 56.16329 | 36.85444 | 40185 ft | 490 kts | 308° |
| 2026-04-29 19:01 | 56.20466 | 36.75729 | 40199 ft | 490 kts | 307° |
| 2026-04-29 19:02 | 56.23891 | 36.67632 | 40185 ft | 490 kts | 307° |
| 2026-04-29 19:02 | 56.28697 | 36.56221 | 40187 ft | 489 kts | 307° |
| 2026-04-29 19:03 | 56.32793 | 36.46450 | 40191 ft | 488 kts | 306° |
| 2026-04-29 19:03 | 56.35916 | 36.35636 | 40210 ft | 488 kts | 289° |
| 2026-04-29 19:04 | 56.37349 | 36.23681 | 40207 ft | 489 kts | 277° |
| 2026-04-29 19:04 | 56.38088 | 36.11485 | 40198 ft | 489 kts | 277° |
| 2026-04-29 19:05 | 56.38849 | 35.99283 | 40202 ft | 490 kts | 277° |
| 2026-04-29 19:05 | 56.39654 | 35.87073 | 40201 ft | 490 kts | 277° |
| 2026-04-29 19:06 | 56.40452 | 35.74929 | 40210 ft | 490 kts | 277° |
| 2026-04-29 19:07 | 56.41629 | 35.56599 | 40213 ft | 490 kts | 277° |
| 2026-04-29 19:07 | 56.42403 | 35.44373 | 40214 ft | 490 kts | 277° |
| 2026-04-29 19:08 | 56.43165 | 35.32139 | 40227 ft | 490 kts | 277° |
| 2026-04-29 19:08 | 56.43917 | 35.19894 | 40227 ft | 490 kts | 277° |
| 2026-04-29 19:09 | 56.44658 | 35.07648 | 40228 ft | 490 kts | 277° |
| 2026-04-29 19:09 | 56.45982 | 34.95608 | 40241 ft | 488 kts | 288° |
| 2026-04-29 19:10 | 56.48425 | 34.84185 | 40244 ft | 486 kts | 296° |
| 2026-04-29 19:10 | 56.51322 | 34.73135 | 40230 ft | 486 kts | 296° |
| 2026-04-29 19:11 | 56.54209 | 34.62046 | 40238 ft | 486 kts | 296° |
| 2026-04-29 19:11 | 56.57048 | 34.50906 | 40241 ft | 487 kts | 295° |
| 2026-04-29 19:12 | 56.59870 | 34.39739 | 40242 ft | 487 kts | 296° |
| 2026-04-29 19:12 | 56.62685 | 34.28562 | 40250 ft | 487 kts | 296° |
| 2026-04-29 19:13 | 56.65276 | 34.17196 | 40236 ft | 488 kts | 288° |
| 2026-04-29 19:13 | 56.66749 | 34.05140 | 40250 ft | 490 kts | 278° |
| 2026-04-29 19:14 | 56.67368 | 33.92784 | 40255 ft | 491 kts | 276° |
| 2026-04-29 19:14 | 56.67917 | 33.80420 | 40241 ft | 491 kts | 276° |
| 2026-04-29 19:15 | 56.68486 | 33.68033 | 40253 ft | 491 kts | 277° |
| 2026-04-29 19:15 | 56.69066 | 33.55643 | 40250 ft | 492 kts | 277° |
| 2026-04-29 19:16 | 56.69643 | 33.43237 | 40248 ft | 492 kts | 276° |
| 2026-04-29 19:16 | 56.70201 | 33.30898 | 40248 ft | 492 kts | 276° |
| 2026-04-29 19:17 | 56.70750 | 33.18478 | 40241 ft | 492 kts | 276° |
| 2026-04-29 19:17 | 56.71288 | 33.06049 | 40251 ft | 493 kts | 276° |
| 2026-04-29 19:18 | 56.71814 | 32.93608 | 40257 ft | 493 kts | 276° |
| 2026-04-29 19:18 | 56.72327 | 32.81151 | 40256 ft | 494 kts | 276° |
| 2026-04-29 19:19 | 56.72826 | 32.68688 | 40258 ft | 494 kts | 276° |
| 2026-04-29 19:19 | 56.73314 | 32.56210 | 40246 ft | 494 kts | 276° |
| 2026-04-29 19:20 | 56.73791 | 32.43727 | 40253 ft | 494 kts | 276° |
| 2026-04-29 19:20 | 56.74257 | 32.31236 | 40264 ft | 494 kts | 276° |
| 2026-04-29 19:21 | 56.74708 | 32.18728 | 40267 ft | 495 kts | 276° |
| 2026-04-29 19:21 | 56.75146 | 32.06200 | 40264 ft | 496 kts | 276° |
| 2026-04-29 19:22 | 56.75574 | 31.93654 | 40265 ft | 496 kts | 276° |
| 2026-04-29 19:22 | 56.75990 | 31.81119 | 40271 ft | 496 kts | 276° |
| 2026-04-29 19:23 | 56.76325 | 31.70699 | 40271 ft | 495 kts | 276° |
| 2026-04-29 19:23 | 56.76716 | 31.58160 | 40275 ft | 496 kts | 276° |
| 2026-04-29 19:24 | 56.77096 | 31.45620 | 40269 ft | 496 kts | 276° |
| 2026-04-29 19:24 | 56.77463 | 31.33064 | 40273 ft | 496 kts | 275° |
| 2026-04-29 19:25 | 56.77819 | 31.20518 | 40256 ft | 496 kts | 276° |
| 2026-04-29 19:25 | 56.78172 | 31.07969 | 40272 ft | 496 kts | 276° |
| 2026-04-29 19:26 | 56.78563 | 30.95411 | 40277 ft | 496 kts | 276° |
| 2026-04-29 19:26 | 56.78945 | 30.82841 | 40275 ft | 497 kts | 276° |
| 2026-04-29 19:27 | 56.79300 | 30.70247 | 40276 ft | 498 kts | 274° |
| 2026-04-29 19:27 | 56.79310 | 30.57610 | 40265 ft | 499 kts | 272° |
| 2026-04-29 19:28 | 56.79212 | 30.44957 | 40273 ft | 499 kts | 272° |
| 2026-04-29 19:28 | 56.79142 | 30.32383 | 40278 ft | 499 kts | 272° |
| 2026-04-29 19:29 | 56.79071 | 30.19736 | 40283 ft | 499 kts | 272° |
| 2026-04-29 19:29 | 56.78997 | 30.07076 | 40280 ft | 499 kts | 272° |
| 2026-04-29 19:30 | 56.78912 | 29.94411 | 40275 ft | 500 kts | 272° |
| 2026-04-29 19:30 | 56.78816 | 29.81753 | 40283 ft | 500 kts | 272° |
| 2026-04-29 19:31 | 56.78706 | 29.69072 | 40290 ft | 500 kts | 272° |
| 2026-04-29 19:31 | 56.78581 | 29.56391 | 40290 ft | 500 kts | 272° |
| 2026-04-29 19:32 | 56.78446 | 29.43711 | 40285 ft | 500 kts | 272° |
| 2026-04-29 19:32 | 56.78296 | 29.31040 | 40292 ft | 500 kts | 271° |
| 2026-04-29 19:33 | 56.78136 | 29.18373 | 40281 ft | 499 kts | 272° |
| 2026-04-29 19:33 | 56.77959 | 29.05719 | 40296 ft | 499 kts | 271° |
| 2026-04-29 19:34 | 56.77716 | 28.93070 | 40303 ft | 500 kts | 271° |
| 2026-04-29 19:34 | 56.77438 | 28.80418 | 40291 ft | 499 kts | 271° |
| 2026-04-29 19:35 | 56.77159 | 28.67767 | 40292 ft | 499 kts | 271° |
| 2026-04-29 19:35 | 56.76872 | 28.55116 | 40282 ft | 500 kts | 271° |
| 2026-04-29 19:36 | 56.76573 | 28.42460 | 40306 ft | 500 kts | 271° |
| 2026-04-29 19:36 | 56.76260 | 28.29808 | 40310 ft | 500 kts | 270° |
| 2026-04-29 19:37 | 56.75936 | 28.17237 | 40308 ft | 500 kts | 270° |
| 2026-04-29 19:37 | 56.75600 | 28.04574 | 40313 ft | 501 kts | 270° |
| 2026-04-29 19:38 | 56.75225 | 27.91890 | 40320 ft | 502 kts | 268° |
| 2026-04-29 19:38 | 56.74027 | 27.79310 | 40307 ft | 505 kts | 261° |
| 2026-04-29 19:39 | 56.72482 | 27.66828 | 40317 ft | 505 kts | 261° |
| 2026-04-29 19:39 | 56.70941 | 27.54358 | 40324 ft | 505 kts | 261° |
| 2026-04-29 19:40 | 56.69422 | 27.41864 | 40325 ft | 506 kts | 261° |
| 2026-04-29 19:40 | 56.67901 | 27.29356 | 40321 ft | 506 kts | 261° |
| 2026-04-29 19:41 | 56.66367 | 27.16860 | 40328 ft | 507 kts | 261° |
| 2026-04-29 19:41 | 56.64817 | 27.04366 | 40318 ft | 507 kts | 261° |
| 2026-04-29 19:42 | 56.63255 | 26.91884 | 40328 ft | 507 kts | 261° |
| 2026-04-29 19:42 | 56.61679 | 26.79399 | 40334 ft | 507 kts | 261° |
| 2026-04-29 19:43 | 56.60089 | 26.66912 | 40337 ft | 508 kts | 261° |
| 2026-04-29 19:43 | 56.58484 | 26.54422 | 40340 ft | 508 kts | 261° |
| 2026-04-29 19:44 | 56.56864 | 26.41938 | 40337 ft | 509 kts | 260° |
| 2026-04-29 19:44 | 56.55233 | 26.29464 | 40347 ft | 508 kts | 261° |
| 2026-04-29 19:45 | 56.53599 | 26.17077 | 40340 ft | 509 kts | 261° |
| 2026-04-29 19:45 | 56.51944 | 26.04616 | 40348 ft | 509 kts | 260° |
| 2026-04-29 19:46 | 56.50273 | 25.92152 | 40351 ft | 509 kts | 260° |
| 2026-04-29 19:46 | 56.48590 | 25.79706 | 40352 ft | 509 kts | 260° |
| 2026-04-29 19:47 | 56.46894 | 25.67256 | 40355 ft | 510 kts | 260° |
| 2026-04-29 19:47 | 56.45184 | 25.54820 | 40350 ft | 509 kts | 260° |
| 2026-04-29 19:48 | 56.43464 | 25.42401 | 40360 ft | 509 kts | 260° |
| 2026-04-29 19:48 | 56.41737 | 25.30031 | 40357 ft | 509 kts | 260° |
| 2026-04-29 19:49 | 56.39995 | 25.17644 | 40367 ft | 509 kts | 260° |
| 2026-04-29 19:49 | 56.38221 | 25.05271 | 40364 ft | 508 kts | 257° |
| 2026-04-29 19:49 | 56.36789 | 24.99404 | 40360 ft | 517 kts | 240° |
| 2026-04-29 19:50 | 56.34537 | 24.94318 | 40369 ft | 523 kts | 226° |
| 2026-04-29 19:50 | 56.31650 | 24.90307 | 40366 ft | 526 kts | 210° |
| 2026-04-29 19:50 | 56.28418 | 24.87245 | 40392 ft | 526 kts | 208° |
| 2026-04-29 19:51 | 56.21890 | 24.81201 | 40380 ft | 529 kts | 208° |
| 2026-04-29 19:51 | 56.15361 | 24.75023 | 40378 ft | 532 kts | 209° |
| 2026-04-29 19:52 | 56.08825 | 24.68735 | 40377 ft | 534 kts | 210° |
| 2026-04-29 19:52 | 56.02280 | 24.62426 | 40372 ft | 535 kts | 210° |
| 2026-04-29 19:53 | 55.95764 | 24.56181 | 40368 ft | 535 kts | 209° |
| 2026-04-29 19:53 | 55.89199 | 24.49926 | 40375 ft | 535 kts | 209° |
| 2026-04-29 19:54 | 55.79350 | 24.40584 | 40374 ft | 534 kts | 209° |
| 2026-04-29 19:54 | 55.72792 | 24.34391 | 40368 ft | 534 kts | 209° |
| 2026-04-29 19:55 | 55.66238 | 24.28227 | 40375 ft | 533 kts | 209° |
| 2026-04-29 19:55 | 55.59687 | 24.22093 | 40373 ft | 532 kts | 209° |
| 2026-04-29 19:56 | 55.53145 | 24.15990 | 40375 ft | 532 kts | 209° |
| 2026-04-29 19:56 | 55.46601 | 24.09906 | 40372 ft | 532 kts | 208° |
| 2026-04-29 19:57 | 55.41164 | 24.04871 | 40377 ft | 531 kts | 208° |
| 2026-04-29 19:57 | 55.33506 | 23.97801 | 40375 ft | 532 kts | 208° |
| 2026-04-29 19:58 | 55.26950 | 23.91772 | 40366 ft | 532 kts | 208° |
| 2026-04-29 19:58 | 55.20387 | 23.85764 | 40370 ft | 532 kts | 208° |
| 2026-04-29 19:59 | 55.13813 | 23.79767 | 40373 ft | 533 kts | 208° |
| 2026-04-29 19:59 | 55.07335 | 23.73880 | 40369 ft | 533 kts | 208° |
| 2026-04-29 20:00 | 55.00757 | 23.67921 | 40372 ft | 533 kts | 208° |
| 2026-04-29 20:00 | 54.94203 | 23.62009 | 40370 ft | 533 kts | 208° |
| 2026-04-29 20:01 | 54.87609 | 23.56081 | 40368 ft | 533 kts | 208° |
| 2026-04-29 20:01 | 54.81254 | 23.50389 | 40369 ft | 533 kts | 208° |
| 2026-04-29 20:02 | 54.74827 | 23.44651 | 40373 ft | 532 kts | 207° |
| 2026-04-29 20:02 | 54.70425 | 23.40736 | 40375 ft | 532 kts | 207° |
| 2026-04-29 20:03 | 54.61717 | 23.33018 | 40375 ft | 531 kts | 207° |
| 2026-04-29 20:03 | 54.55156 | 23.27227 | 40384 ft | 531 kts | 207° |
| 2026-04-29 20:04 | 54.48585 | 23.21444 | 40386 ft | 530 kts | 207° |
| 2026-04-29 20:04 | 54.42022 | 23.15693 | 40388 ft | 529 kts | 207° |
| 2026-04-29 20:05 | 54.35458 | 23.09955 | 40394 ft | 529 kts | 207° |
| 2026-04-29 20:05 | 54.28848 | 23.04454 | 40394 ft | 528 kts | 202° |
| 2026-04-29 20:06 | 54.22017 | 22.99955 | 40398 ft | 527 kts | 201° |
| 2026-04-29 20:06 | 54.15174 | 22.95452 | 40396 ft | 527 kts | 201° |
| 2026-04-29 20:07 | 54.08349 | 22.90924 | 40396 ft | 526 kts | 200° |
| 2026-04-29 20:07 | 54.01305 | 22.87653 | 40403 ft | 525 kts | 191° |
| 2026-04-29 20:08 | 53.95371 | 22.85525 | 40387 ft | 525 kts | 191° |
| 2026-04-29 20:08 | 53.87039 | 22.82438 | 40399 ft | 524 kts | 192° |
| 2026-04-29 20:09 | 53.79917 | 22.79735 | 40399 ft | 525 kts | 192° |
| 2026-04-29 20:09 | 53.72794 | 22.77056 | 40401 ft | 525 kts | 192° |
| 2026-04-29 20:10 | 53.65663 | 22.74392 | 40403 ft | 525 kts | 192° |
| 2026-04-29 20:10 | 53.58538 | 22.71735 | 40392 ft | 525 kts | 192° |
| 2026-04-29 20:11 | 53.52601 | 22.69526 | 40400 ft | 525 kts | 192° |
| 2026-04-29 20:11 | 53.45463 | 22.66881 | 40397 ft | 525 kts | 192° |
| 2026-04-29 20:12 | 53.38327 | 22.64246 | 40401 ft | 526 kts | 192° |
| 2026-04-29 20:12 | 53.31170 | 22.61607 | 40396 ft | 526 kts | 192° |
| 2026-04-29 20:13 | 53.24031 | 22.58989 | 40410 ft | 527 kts | 192° |
| 2026-04-29 20:13 | 53.16859 | 22.56357 | 40404 ft | 526 kts | 192° |